sensor_id;sensor_type;location;lat;lon;timestamp;P1;durP1;ratioP1;P2;durP2;ratioP2
66342;SDS011;53144;51.524;5.080;2023-04-02T00:09:00;10.50;;;8.90;;
66342;SDS011;53144;51.524;5.080;2023-04-02T00:11:36;9.20;;;8.30;;
66342;SDS011;53144;51.524;5.080;2023-04-02T00:14:26;9.50;;;8.50;;
66342;SDS011;53144;51.524;5.080;2023-04-02T00:16:55;10.35;;;8.77;;
66342;SDS011;53144;51.524;5.080;2023-04-02T00:19:36;8.93;;;8.00;;
66342;SDS011;53144;51.524;5.080;2023-04-02T00:22:06;10.32;;;8.38;;
66342;SDS011;53144;51.524;5.080;2023-04-02T00:24:37;9.23;;;8.13;;
66342;SDS011;53144;51.524;5.080;2023-04-02T00:27:04;9.48;;;8.48;;
66342;SDS011;53144;51.524;5.080;2023-04-02T00:32:35;9.73;;;8.60;;
66342;SDS011;53144;51.524;5.080;2023-04-02T00:35:01;10.90;;;9.38;;
66342;SDS011;53144;51.524;5.080;2023-04-02T00:37:28;9.60;;;8.70;;
66342;SDS011;53144;51.524;5.080;2023-04-02T00:42:49;10.25;;;9.25;;
66342;SDS011;53144;51.524;5.080;2023-04-02T00:45:24;11.15;;;9.38;;
66342;SDS011;53144;51.524;5.080;2023-04-02T00:47:53;10.43;;;9.13;;
66342;SDS011;53144;51.524;5.080;2023-04-02T00:52:52;9.05;;;7.45;;
66342;SDS011;53144;51.524;5.080;2023-04-02T00:57:48;10.10;;;8.00;;
66342;SDS011;53144;51.524;5.080;2023-04-02T01:00:28;11.63;;;9.70;;
66342;SDS011;53144;51.524;5.080;2023-04-02T01:06:10;11.77;;;10.50;;
66342;SDS011;53144;51.524;5.080;2023-04-02T01:14:02;13.35;;;10.63;;
66342;SDS011;53144;51.524;5.080;2023-04-02T01:16:43;11.07;;;9.95;;
66342;SDS011;53144;51.524;5.080;2023-04-02T01:22:18;10.63;;;9.40;;
66342;SDS011;53144;51.524;5.080;2023-04-02T01:24:55;9.23;;;8.20;;
66342;SDS011;53144;51.524;5.080;2023-04-02T01:27:32;10.63;;;9.10;;
66342;SDS011;53144;51.524;5.080;2023-04-02T01:30:05;11.30;;;9.98;;
66342;SDS011;53144;51.524;5.080;2023-04-02T01:32:32;11.35;;;10.18;;
66342;SDS011;53144;51.524;5.080;2023-04-02T01:34:58;11.32;;;10.23;;
66342;SDS011;53144;51.524;5.080;2023-04-02T01:43:00;10.35;;;9.30;;
66342;SDS011;53144;51.524;5.080;2023-04-02T01:45:34;10.15;;;9.05;;
66342;SDS011;53144;51.524;5.080;2023-04-02T01:48:04;10.13;;;8.70;;
66342;SDS011;53144;51.524;5.080;2023-04-02T01:50:34;9.45;;;8.43;;
66342;SDS011;53144;51.524;5.080;2023-04-02T01:53:03;11.07;;;9.20;;
66342;SDS011;53144;51.524;5.080;2023-04-02T01:55:43;10.70;;;8.93;;
66342;SDS011;53144;51.524;5.080;2023-04-02T01:58:13;9.88;;;8.80;;
66342;SDS011;53144;51.524;5.080;2023-04-02T02:00:45;12.27;;;10.18;;
66342;SDS011;53144;51.524;5.080;2023-04-02T02:03:15;12.63;;;11.13;;
66342;SDS011;53144;51.524;5.080;2023-04-02T02:05:41;13.65;;;11.63;;
66342;SDS011;53144;51.524;5.080;2023-04-02T02:08:22;16.27;;;12.20;;
66342;SDS011;53144;51.524;5.080;2023-04-02T02:10:52;11.75;;;10.43;;
66342;SDS011;53144;51.524;5.080;2023-04-02T02:13:18;15.93;;;13.32;;
66342;SDS011;53144;51.524;5.080;2023-04-02T02:15:45;16.65;;;13.63;;
66342;SDS011;53144;51.524;5.080;2023-04-02T02:18:11;17.10;;;13.68;;
66342;SDS011;53144;51.524;5.080;2023-04-02T02:20:37;16.80;;;13.63;;
66342;SDS011;53144;51.524;5.080;2023-04-02T02:23:03;15.55;;;13.85;;
66342;SDS011;53144;51.524;5.080;2023-04-02T02:30:39;15.57;;;13.82;;
66342;SDS011;53144;51.524;5.080;2023-04-02T02:35:55;14.45;;;12.88;;
66342;SDS011;53144;51.524;5.080;2023-04-02T02:38:42;18.42;;;12.85;;
66342;SDS011;53144;51.524;5.080;2023-04-02T02:41:21;16.25;;;12.15;;
66342;SDS011;53144;51.524;5.080;2023-04-02T02:46:26;15.73;;;10.93;;
66342;SDS011;53144;51.524;5.080;2023-04-02T02:48:52;15.85;;;12.45;;
66342;SDS011;53144;51.524;5.080;2023-04-02T02:51:22;14.13;;;11.88;;
66342;SDS011;53144;51.524;5.080;2023-04-02T02:53:53;14.27;;;12.50;;
66342;SDS011;53144;51.524;5.080;2023-04-02T02:56:22;15.02;;;11.82;;
66342;SDS011;53144;51.524;5.080;2023-04-02T02:58:50;15.13;;;12.57;;
66342;SDS011;53144;51.524;5.080;2023-04-02T03:01:17;15.18;;;12.10;;
66342;SDS011;53144;51.524;5.080;2023-04-02T03:03:43;16.67;;;11.73;;
66342;SDS011;53144;51.524;5.080;2023-04-02T03:06:13;16.70;;;12.18;;
66342;SDS011;53144;51.524;5.080;2023-04-02T03:08:42;14.55;;;11.95;;
66342;SDS011;53144;51.524;5.080;2023-04-02T03:11:25;17.42;;;11.80;;
66342;SDS011;53144;51.524;5.080;2023-04-02T03:14:00;14.15;;;11.77;;
66342;SDS011;53144;51.524;5.080;2023-04-02T03:16:44;13.65;;;10.25;;
66342;SDS011;53144;51.524;5.080;2023-04-02T03:19:25;12.68;;;11.18;;
66342;SDS011;53144;51.524;5.080;2023-04-02T03:24:40;16.02;;;10.60;;
66342;SDS011;53144;51.524;5.080;2023-04-02T03:27:23;11.75;;;10.18;;
66342;SDS011;53144;51.524;5.080;2023-04-02T03:33:02;11.57;;;10.15;;
66342;SDS011;53144;51.524;5.080;2023-04-02T03:35:34;12.80;;;9.80;;
66342;SDS011;53144;51.524;5.080;2023-04-02T03:41:21;12.90;;;10.70;;
66342;SDS011;53144;51.524;5.080;2023-04-02T03:43:57;17.15;;;12.23;;
66342;SDS011;53144;51.524;5.080;2023-04-02T03:46:41;14.70;;;12.05;;
66342;SDS011;53144;51.524;5.080;2023-04-02T03:49:11;13.60;;;11.20;;
66342;SDS011;53144;51.524;5.080;2023-04-02T03:51:58;14.15;;;11.45;;
66342;SDS011;53144;51.524;5.080;2023-04-02T03:54:35;14.38;;;12.38;;
66342;SDS011;53144;51.524;5.080;2023-04-02T03:57:01;16.85;;;11.82;;
66342;SDS011;53144;51.524;5.080;2023-04-02T04:04:40;13.80;;;12.10;;
66342;SDS011;53144;51.524;5.080;2023-04-02T04:07:10;18.20;;;12.30;;
66342;SDS011;53144;51.524;5.080;2023-04-02T04:09:44;15.35;;;12.07;;
66342;SDS011;53144;51.524;5.080;2023-04-02T04:14:50;13.77;;;11.30;;
66342;SDS011;53144;51.524;5.080;2023-04-02T04:17:29;16.40;;;12.23;;
66342;SDS011;53144;51.524;5.080;2023-04-02T04:20:16;15.48;;;11.55;;
66342;SDS011;53144;51.524;5.080;2023-04-02T04:22:48;16.00;;;11.18;;
66342;SDS011;53144;51.524;5.080;2023-04-02T04:25:28;14.07;;;11.10;;
66342;SDS011;53144;51.524;5.080;2023-04-02T04:33:43;12.93;;;10.68;;
66342;SDS011;53144;51.524;5.080;2023-04-02T04:36:20;11.65;;;9.77;;
66342;SDS011;53144;51.524;5.080;2023-04-02T04:38:54;13.90;;;9.88;;
66342;SDS011;53144;51.524;5.080;2023-04-02T04:41:25;13.35;;;9.68;;
66342;SDS011;53144;51.524;5.080;2023-04-02T04:43:57;11.60;;;9.68;;
66342;SDS011;53144;51.524;5.080;2023-04-02T04:51:50;13.20;;;9.60;;
66342;SDS011;53144;51.524;5.080;2023-04-02T04:54:18;11.52;;;8.50;;
66342;SDS011;53144;51.524;5.080;2023-04-02T04:56:45;9.25;;;8.15;;
66342;SDS011;53144;51.524;5.080;2023-04-02T04:59:20;12.27;;;8.45;;
66342;SDS011;53144;51.524;5.080;2023-04-02T05:04:40;9.05;;;7.55;;
66342;SDS011;53144;51.524;5.080;2023-04-02T05:09:41;12.50;;;8.80;;
66342;SDS011;53144;51.524;5.080;2023-04-02T05:15:59;11.18;;;8.90;;
66342;SDS011;53144;51.524;5.080;2023-04-02T05:21:05;12.38;;;8.35;;
66342;SDS011;53144;51.524;5.080;2023-04-02T05:23:43;12.27;;;7.70;;
66342;SDS011;53144;51.524;5.080;2023-04-02T05:29:10;10.48;;;7.97;;
66342;SDS011;53144;51.524;5.080;2023-04-02T05:31:42;9.65;;;7.18;;
66342;SDS011;53144;51.524;5.080;2023-04-02T05:34:12;10.13;;;7.80;;
66342;SDS011;53144;51.524;5.080;2023-04-02T05:36:45;9.57;;;7.68;;
66342;SDS011;53144;51.524;5.080;2023-04-02T05:39:11;9.55;;;7.57;;
66342;SDS011;53144;51.524;5.080;2023-04-02T05:41:43;11.30;;;7.55;;
66342;SDS011;53144;51.524;5.080;2023-04-02T05:44:13;10.77;;;8.02;;
66342;SDS011;53144;51.524;5.080;2023-04-02T05:52:06;12.23;;;8.20;;
66342;SDS011;53144;51.524;5.080;2023-04-02T05:54:42;13.85;;;9.77;;
66342;SDS011;53144;51.524;5.080;2023-04-02T05:57:14;13.67;;;10.97;;
66342;SDS011;53144;51.524;5.080;2023-04-02T05:59:57;16.08;;;11.82;;
66342;SDS011;53144;51.524;5.080;2023-04-02T06:02:34;18.75;;;10.60;;
66342;SDS011;53144;51.524;5.080;2023-04-02T06:07:39;16.13;;;10.45;;
66342;SDS011;53144;51.524;5.080;2023-04-02T06:10:20;15.27;;;11.45;;
66342;SDS011;53144;51.524;5.080;2023-04-02T06:12:56;16.85;;;11.73;;
66342;SDS011;53144;51.524;5.080;2023-04-02T06:15:27;12.82;;;11.10;;
66342;SDS011;53144;51.524;5.080;2023-04-02T06:17:58;13.40;;;10.88;;
66342;SDS011;53144;51.524;5.080;2023-04-02T06:20:27;12.77;;;10.18;;
66342;SDS011;53144;51.524;5.080;2023-04-02T06:28:51;16.65;;;10.88;;
66342;SDS011;53144;51.524;5.080;2023-04-02T06:34:05;17.15;;;11.27;;
66342;SDS011;53144;51.524;5.080;2023-04-02T06:36:40;12.43;;;10.15;;
66342;SDS011;53144;51.524;5.080;2023-04-02T06:39:08;14.65;;;9.70;;
66342;SDS011;53144;51.524;5.080;2023-04-02T06:41:40;15.70;;;10.57;;
66342;SDS011;53144;51.524;5.080;2023-04-02T06:44:08;11.88;;;8.70;;
66342;SDS011;53144;51.524;5.080;2023-04-02T06:46:47;14.15;;;9.88;;
66342;SDS011;53144;51.524;5.080;2023-04-02T06:49:24;14.18;;;8.32;;
66342;SDS011;53144;51.524;5.080;2023-04-02T06:51:53;13.77;;;8.15;;
66342;SDS011;53144;51.524;5.080;2023-04-02T06:54:19;12.77;;;7.60;;
66342;SDS011;53144;51.524;5.080;2023-04-02T06:56:46;12.93;;;7.82;;
66342;SDS011;53144;51.524;5.080;2023-04-02T06:59:14;13.13;;;7.43;;
66342;SDS011;53144;51.524;5.080;2023-04-02T07:01:47;10.20;;;6.88;;
66342;SDS011;53144;51.524;5.080;2023-04-02T07:04:39;9.07;;;7.28;;
66342;SDS011;53144;51.524;5.080;2023-04-02T07:07:04;9.25;;;6.88;;
66342;SDS011;53144;51.524;5.080;2023-04-02T07:09:39;11.40;;;7.13;;
66342;SDS011;53144;51.524;5.080;2023-04-02T07:12:11;11.02;;;7.10;;
66342;SDS011;53144;51.524;5.080;2023-04-02T07:14:37;9.40;;;6.82;;
66342;SDS011;53144;51.524;5.080;2023-04-02T07:17:02;10.32;;;6.55;;
66342;SDS011;53144;51.524;5.080;2023-04-02T07:19:28;7.17;;;5.57;;
66342;SDS011;53144;51.524;5.080;2023-04-02T07:21:53;11.38;;;7.03;;
66342;SDS011;53144;51.524;5.080;2023-04-02T07:24:18;11.18;;;6.55;;
66342;SDS011;53144;51.524;5.080;2023-04-02T07:26:44;7.68;;;4.35;;
66342;SDS011;53144;51.524;5.080;2023-04-02T07:29:14;7.85;;;4.93;;
66342;SDS011;53144;51.524;5.080;2023-04-02T07:31:41;7.07;;;4.68;;
66342;SDS011;53144;51.524;5.080;2023-04-02T07:34:07;8.63;;;5.07;;
66342;SDS011;53144;51.524;5.080;2023-04-02T07:36:33;8.23;;;5.22;;
66342;SDS011;53144;51.524;5.080;2023-04-02T07:38:58;9.55;;;4.90;;
66342;SDS011;53144;51.524;5.080;2023-04-02T07:41:24;7.18;;;4.07;;
66342;SDS011;53144;51.524;5.080;2023-04-02T07:46:15;4.30;;;3.47;;
66342;SDS011;53144;51.524;5.080;2023-04-02T07:48:43;7.03;;;3.67;;
66342;SDS011;53144;51.524;5.080;2023-04-02T07:51:19;5.90;;;4.10;;
66342;SDS011;53144;51.524;5.080;2023-04-02T07:53:46;4.63;;;3.13;;
66342;SDS011;53144;51.524;5.080;2023-04-02T07:56:19;5.57;;;2.80;;
66342;SDS011;53144;51.524;5.080;2023-04-02T07:58:44;10.35;;;3.35;;
66342;SDS011;53144;51.524;5.080;2023-04-02T08:03:43;5.35;;;2.80;;
66342;SDS011;53144;51.524;5.080;2023-04-02T08:06:09;9.52;;;3.33;;
66342;SDS011;53144;51.524;5.080;2023-04-02T08:08:34;4.13;;;2.05;;
66342;SDS011;53144;51.524;5.080;2023-04-02T08:11:00;5.90;;;3.20;;
66342;SDS011;53144;51.524;5.080;2023-04-02T08:13:25;5.80;;;2.67;;
66342;SDS011;53144;51.524;5.080;2023-04-02T08:15:51;4.78;;;2.75;;
66342;SDS011;53144;51.524;5.080;2023-04-02T08:18:16;5.72;;;2.97;;
66342;SDS011;53144;51.524;5.080;2023-04-02T08:20:41;5.68;;;2.25;;
66342;SDS011;53144;51.524;5.080;2023-04-02T08:23:13;5.85;;;2.40;;
66342;SDS011;53144;51.524;5.080;2023-04-02T08:25:41;4.97;;;2.45;;
66342;SDS011;53144;51.524;5.080;2023-04-02T08:28:06;4.68;;;2.53;;
66342;SDS011;53144;51.524;5.080;2023-04-02T08:30:32;7.30;;;2.33;;
66342;SDS011;53144;51.524;5.080;2023-04-02T08:32:57;5.70;;;2.38;;
66342;SDS011;53144;51.524;5.080;2023-04-02T08:35:23;3.88;;;2.40;;
66342;SDS011;53144;51.524;5.080;2023-04-02T08:37:48;4.45;;;2.30;;
66342;SDS011;53144;51.524;5.080;2023-04-02T08:40:21;5.22;;;2.40;;
66342;SDS011;53144;51.524;5.080;2023-04-02T08:43:07;7.57;;;2.20;;
66342;SDS011;53144;51.524;5.080;2023-04-02T08:48:35;3.97;;;2.08;;
66342;SDS011;53144;51.524;5.080;2023-04-02T08:51:03;4.38;;;2.65;;
66342;SDS011;53144;51.524;5.080;2023-04-02T08:53:31;6.07;;;2.50;;
66342;SDS011;53144;51.524;5.080;2023-04-02T08:58:51;3.90;;;2.25;;
66342;SDS011;53144;51.524;5.080;2023-04-02T09:01:32;6.72;;;2.60;;
66342;SDS011;53144;51.524;5.080;2023-04-02T09:04:12;4.43;;;2.13;;
66342;SDS011;53144;51.524;5.080;2023-04-02T09:06:40;4.55;;;2.28;;
66342;SDS011;53144;51.524;5.080;2023-04-02T09:09:07;4.18;;;2.05;;
66342;SDS011;53144;51.524;5.080;2023-04-02T09:14:52;2.58;;;2.00;;
66342;SDS011;53144;51.524;5.080;2023-04-02T09:17:29;5.07;;;2.08;;
66342;SDS011;53144;51.524;5.080;2023-04-02T09:19:56;2.53;;;1.90;;
66342;SDS011;53144;51.524;5.080;2023-04-02T09:22:30;2.85;;;2.00;;
66342;SDS011;53144;51.524;5.080;2023-04-02T09:25:01;4.28;;;2.20;;
66342;SDS011;53144;51.524;5.080;2023-04-02T09:27:30;4.22;;;2.15;;
66342;SDS011;53144;51.524;5.080;2023-04-02T09:32:57;5.75;;;2.40;;
66342;SDS011;53144;51.524;5.080;2023-04-02T09:35:27;5.93;;;2.60;;
66342;SDS011;53144;51.524;5.080;2023-04-02T09:40:32;5.13;;;2.67;;
66342;SDS011;53144;51.524;5.080;2023-04-02T09:43:13;6.78;;;2.67;;
66342;SDS011;53144;51.524;5.080;2023-04-02T09:45:53;6.32;;;3.08;;
66342;SDS011;53144;51.524;5.080;2023-04-02T09:51:21;7.88;;;3.42;;
66342;SDS011;53144;51.524;5.080;2023-04-02T09:58:44;6.05;;;2.70;;
66342;SDS011;53144;51.524;5.080;2023-04-02T10:01:35;4.30;;;2.58;;
66342;SDS011;53144;51.524;5.080;2023-04-02T10:04:03;5.10;;;2.47;;
66342;SDS011;53144;51.524;5.080;2023-04-02T10:06:30;5.35;;;2.92;;
66342;SDS011;53144;51.524;5.080;2023-04-02T10:09:05;4.10;;;2.97;;
66342;SDS011;53144;51.524;5.080;2023-04-02T10:11:53;6.13;;;3.47;;
66342;SDS011;53144;51.524;5.080;2023-04-02T10:14:24;7.85;;;2.70;;
66342;SDS011;53144;51.524;5.080;2023-04-02T10:17:05;8.80;;;2.95;;
66342;SDS011;53144;51.524;5.080;2023-04-02T10:19:51;9.57;;;3.40;;
66342;SDS011;53144;51.524;5.080;2023-04-02T10:22:20;7.90;;;3.20;;
66342;SDS011;53144;51.524;5.080;2023-04-02T10:24:47;4.90;;;2.85;;
66342;SDS011;53144;51.524;5.080;2023-04-02T10:32:50;5.63;;;2.88;;
66342;SDS011;53144;51.524;5.080;2023-04-02T10:40:58;6.47;;;3.00;;
66342;SDS011;53144;51.524;5.080;2023-04-02T10:43:32;5.55;;;3.40;;
66342;SDS011;53144;51.524;5.080;2023-04-02T10:51:03;6.82;;;2.90;;
66342;SDS011;53144;51.524;5.080;2023-04-02T10:53:46;6.00;;;3.00;;
66342;SDS011;53144;51.524;5.080;2023-04-02T10:56:33;6.32;;;3.17;;
66342;SDS011;53144;51.524;5.080;2023-04-02T10:59:02;4.70;;;2.72;;
66342;SDS011;53144;51.524;5.080;2023-04-02T11:01:35;4.15;;;2.25;;
66342;SDS011;53144;51.524;5.080;2023-04-02T11:04:07;7.10;;;2.38;;
66342;SDS011;53144;51.524;5.080;2023-04-02T11:06:44;3.05;;;1.95;;
66342;SDS011;53144;51.524;5.080;2023-04-02T11:09:18;4.07;;;2.47;;
66342;SDS011;53144;51.524;5.080;2023-04-02T11:11:47;5.82;;;2.70;;
66342;SDS011;53144;51.524;5.080;2023-04-02T11:14:27;3.42;;;2.85;;
66342;SDS011;53144;51.524;5.080;2023-04-02T11:16:55;4.03;;;2.35;;
66342;SDS011;53144;51.524;5.080;2023-04-02T11:19:24;6.00;;;3.17;;
66342;SDS011;53144;51.524;5.080;2023-04-02T11:22:03;6.28;;;2.90;;
66342;SDS011;53144;51.524;5.080;2023-04-02T11:24:41;3.85;;;2.83;;
66342;SDS011;53144;51.524;5.080;2023-04-02T11:32:41;4.38;;;3.00;;
66342;SDS011;53144;51.524;5.080;2023-04-02T11:40:41;11.30;;;3.13;;
66342;SDS011;53144;51.524;5.080;2023-04-02T11:48:40;5.90;;;2.75;;
66342;SDS011;53144;51.524;5.080;2023-04-02T11:51:48;4.90;;;2.38;;
66342;SDS011;53144;51.524;5.080;2023-04-02T11:53:55;6.15;;;2.97;;
66342;SDS011;53144;51.524;5.080;2023-04-02T11:56:29;4.32;;;2.85;;
66342;SDS011;53144;51.524;5.080;2023-04-02T12:04:16;4.05;;;2.33;;
66342;SDS011;53144;51.524;5.080;2023-04-02T12:09:51;5.70;;;2.60;;
66342;SDS011;53144;51.524;5.080;2023-04-02T12:12:26;5.20;;;2.20;;
66342;SDS011;53144;51.524;5.080;2023-04-02T12:14:57;5.38;;;2.75;;
66342;SDS011;53144;51.524;5.080;2023-04-02T12:19:55;6.93;;;2.42;;
66342;SDS011;53144;51.524;5.080;2023-04-02T12:22:32;7.18;;;2.58;;
66342;SDS011;53144;51.524;5.080;2023-04-02T12:25:00;8.60;;;2.55;;
66342;SDS011;53144;51.524;5.080;2023-04-02T12:30:15;3.03;;;2.28;;
66342;SDS011;53144;51.524;5.080;2023-04-02T12:32:43;4.18;;;2.30;;
66342;SDS011;53144;51.524;5.080;2023-04-02T12:40:22;4.30;;;2.40;;
66342;SDS011;53144;51.524;5.080;2023-04-02T12:42:48;4.00;;;2.20;;
66342;SDS011;53144;51.524;5.080;2023-04-02T12:45:46;3.40;;;1.85;;
66342;SDS011;53144;51.524;5.080;2023-04-02T12:48:05;4.28;;;2.40;;
66342;SDS011;53144;51.524;5.080;2023-04-02T12:50:30;3.42;;;1.65;;
66342;SDS011;53144;51.524;5.080;2023-04-02T12:52:57;2.85;;;1.95;;
66342;SDS011;53144;51.524;5.080;2023-04-02T12:55:25;4.65;;;2.10;;
66342;SDS011;53144;51.524;5.080;2023-04-02T12:57:57;4.88;;;1.70;;
66342;SDS011;53144;51.524;5.080;2023-04-02T13:05:32;2.33;;;1.80;;
66342;SDS011;53144;51.524;5.080;2023-04-02T13:08:05;5.03;;;2.15;;
66342;SDS011;53144;51.524;5.080;2023-04-02T13:10:39;4.45;;;1.88;;
66342;SDS011;53144;51.524;5.080;2023-04-02T13:13:04;2.90;;;1.90;;
66342;SDS011;53144;51.524;5.080;2023-04-02T13:15:31;4.78;;;2.03;;
66342;SDS011;53144;51.524;5.080;2023-04-02T13:20:39;3.90;;;2.20;;
66342;SDS011;53144;51.524;5.080;2023-04-02T13:25:53;4.00;;;1.70;;
66342;SDS011;53144;51.524;5.080;2023-04-02T13:28:20;2.03;;;1.83;;
66342;SDS011;53144;51.524;5.080;2023-04-02T13:30:46;1.88;;;1.77;;
66342;SDS011;53144;51.524;5.080;2023-04-02T13:35:37;3.78;;;2.33;;
66342;SDS011;53144;51.524;5.080;2023-04-02T13:40:30;5.43;;;2.60;;
66342;SDS011;53144;51.524;5.080;2023-04-02T13:42:57;4.95;;;2.25;;
66342;SDS011;53144;51.524;5.080;2023-04-02T13:47:52;3.35;;;2.20;;
66342;SDS011;53144;51.524;5.080;2023-04-02T13:50:20;3.13;;;2.30;;
66342;SDS011;53144;51.524;5.080;2023-04-02T13:52:50;2.97;;;2.08;;
66342;SDS011;53144;51.524;5.080;2023-04-02T13:55:16;3.47;;;2.10;;
66342;SDS011;53144;51.524;5.080;2023-04-02T13:57:45;3.13;;;2.30;;
66342;SDS011;53144;51.524;5.080;2023-04-02T14:02:38;4.55;;;1.90;;
66342;SDS011;53144;51.524;5.080;2023-04-02T14:05:50;5.72;;;2.60;;
66342;SDS011;53144;51.524;5.080;2023-04-02T14:08:23;3.20;;;1.92;;
66342;SDS011;53144;51.524;5.080;2023-04-02T14:13:49;2.00;;;1.70;;
66342;SDS011;53144;51.524;5.080;2023-04-02T14:30:51;3.35;;;2.10;;
66342;SDS011;53144;51.524;5.080;2023-04-02T14:38:57;6.88;;;2.35;;
66342;SDS011;53144;51.524;5.080;2023-04-02T14:41:41;4.55;;;1.95;;
66342;SDS011;53144;51.524;5.080;2023-04-02T14:44:12;4.57;;;2.17;;
66342;SDS011;53144;51.524;5.080;2023-04-02T14:49:06;5.90;;;2.05;;
66342;SDS011;53144;51.524;5.080;2023-04-02T14:51:58;4.65;;;2.38;;
66342;SDS011;53144;51.524;5.080;2023-04-02T15:02:06;3.30;;;2.22;;
66342;SDS011;53144;51.524;5.080;2023-04-02T15:04:41;4.97;;;2.30;;
66342;SDS011;53144;51.524;5.080;2023-04-02T15:07:24;2.83;;;2.00;;
66342;SDS011;53144;51.524;5.080;2023-04-02T15:10:04;4.65;;;2.15;;
66342;SDS011;53144;51.524;5.080;2023-04-02T15:12:51;5.00;;;2.53;;
66342;SDS011;53144;51.524;5.080;2023-04-02T15:15:22;4.28;;;2.20;;
66342;SDS011;53144;51.524;5.080;2023-04-02T15:17:52;3.45;;;1.90;;
66342;SDS011;53144;51.524;5.080;2023-04-02T15:22:51;5.13;;;2.28;;
66342;SDS011;53144;51.524;5.080;2023-04-02T15:25:32;4.95;;;2.10;;
66342;SDS011;53144;51.524;5.080;2023-04-02T15:30:46;7.50;;;2.03;;
66342;SDS011;53144;51.524;5.080;2023-04-02T15:38:50;5.03;;;2.08;;
66342;SDS011;53144;51.524;5.080;2023-04-02T15:41:25;4.90;;;2.00;;
66342;SDS011;53144;51.524;5.080;2023-04-02T15:44:02;5.88;;;2.47;;
66342;SDS011;53144;51.524;5.080;2023-04-02T15:55:13;6.53;;;3.00;;
66342;SDS011;53144;51.524;5.080;2023-04-02T16:00:29;6.15;;;2.65;;
66342;SDS011;53144;51.524;5.080;2023-04-02T16:08:23;6.78;;;2.70;;
66342;SDS011;53144;51.524;5.080;2023-04-02T16:10:53;4.70;;;2.40;;
66342;SDS011;53144;51.524;5.080;2023-04-02T16:16:00;9.40;;;4.30;;
66342;SDS011;53144;51.524;5.080;2023-04-02T16:18:32;3.85;;;2.20;;
66342;SDS011;53144;51.524;5.080;2023-04-02T16:21:23;7.50;;;2.45;;
66342;SDS011;53144;51.524;5.080;2023-04-02T16:23:53;5.18;;;1.85;;
66342;SDS011;53144;51.524;5.080;2023-04-02T16:37:36;4.25;;;2.13;;
66342;SDS011;53144;51.524;5.080;2023-04-02T16:45:17;7.20;;;5.03;;
66342;SDS011;53144;51.524;5.080;2023-04-02T16:50:54;3.75;;;2.10;;
66342;SDS011;53144;51.524;5.080;2023-04-02T16:56:20;2.22;;;1.48;;
66342;SDS011;53144;51.524;5.080;2023-04-02T16:59:10;2.75;;;2.00;;
66342;SDS011;53144;51.524;5.080;2023-04-02T17:04:42;4.13;;;2.08;;
66342;SDS011;53144;51.524;5.080;2023-04-02T17:07:32;3.17;;;1.80;;
66342;SDS011;53144;51.524;5.080;2023-04-02T17:12:38;4.05;;;2.67;;
66342;SDS011;53144;51.524;5.080;2023-04-02T17:15:25;6.20;;;2.70;;
66342;SDS011;53144;51.524;5.080;2023-04-02T17:17:53;4.05;;;2.28;;
66342;SDS011;53144;51.524;5.080;2023-04-02T17:20:22;8.05;;;4.22;;
66342;SDS011;53144;51.524;5.080;2023-04-02T17:22:49;3.97;;;2.40;;
66342;SDS011;53144;51.524;5.080;2023-04-02T17:27:53;16.33;;;12.70;;
66342;SDS011;53144;51.524;5.080;2023-04-02T17:30:40;5.30;;;2.08;;
66342;SDS011;53144;51.524;5.080;2023-04-02T17:33:12;3.30;;;2.13;;
66342;SDS011;53144;51.524;5.080;2023-04-02T17:35:47;4.15;;;2.30;;
66342;SDS011;53144;51.524;5.080;2023-04-02T17:58:32;7.15;;;6.43;;
66342;SDS011;53144;51.524;5.080;2023-04-02T18:01:28;4.63;;;1.90;;
66342;SDS011;53144;51.524;5.080;2023-04-02T18:04:03;7.07;;;1.92;;
66342;SDS011;53144;51.524;5.080;2023-04-02T18:09:27;6.95;;;5.10;;
66342;SDS011;53144;51.524;5.080;2023-04-02T18:17:14;6.38;;;3.10;;
66342;SDS011;53144;51.524;5.080;2023-04-02T18:19:57;4.80;;;3.63;;
66342;SDS011;53144;51.524;5.080;2023-04-02T18:22:41;5.10;;;2.10;;
66342;SDS011;53144;51.524;5.080;2023-04-02T18:38:51;5.65;;;2.42;;
66342;SDS011;53144;51.524;5.080;2023-04-02T18:46:55;3.90;;;2.60;;
66342;SDS011;53144;51.524;5.080;2023-04-02T18:49:44;5.50;;;4.70;;
66342;SDS011;53144;51.524;5.080;2023-04-02T18:52:16;5.55;;;4.47;;
66342;SDS011;53144;51.524;5.080;2023-04-02T18:54:44;9.10;;;4.38;;
66342;SDS011;53144;51.524;5.080;2023-04-02T18:57:18;4.65;;;4.18;;
66342;SDS011;53144;51.524;5.080;2023-04-02T18:59:50;3.42;;;2.58;;
66342;SDS011;53144;51.524;5.080;2023-04-02T19:02:33;8.18;;;3.30;;
66342;SDS011;53144;51.524;5.080;2023-04-02T19:05:02;6.35;;;3.05;;
66342;SDS011;53144;51.524;5.080;2023-04-02T19:07:32;3.58;;;2.60;;
66342;SDS011;53144;51.524;5.080;2023-04-02T19:12:52;5.68;;;3.65;;
66342;SDS011;53144;51.524;5.080;2023-04-02T19:15:18;3.28;;;2.80;;
66342;SDS011;53144;51.524;5.080;2023-04-02T19:26:45;4.43;;;3.03;;
66342;SDS011;53144;51.524;5.080;2023-04-02T19:29:23;4.85;;;3.50;;
66342;SDS011;53144;51.524;5.080;2023-04-02T19:34:44;4.95;;;2.70;;
66342;SDS011;53144;51.524;5.080;2023-04-02T19:37:27;5.53;;;2.72;;
66342;SDS011;53144;51.524;5.080;2023-04-02T19:42:55;5.07;;;2.70;;
66342;SDS011;53144;51.524;5.080;2023-04-02T19:47:52;3.90;;;2.45;;
66342;SDS011;53144;51.524;5.080;2023-04-02T19:50:19;5.80;;;2.53;;
66342;SDS011;53144;51.524;5.080;2023-04-02T19:52:44;3.80;;;2.90;;
66342;SDS011;53144;51.524;5.080;2023-04-02T19:55:09;6.75;;;2.80;;
66342;SDS011;53144;51.524;5.080;2023-04-02T19:57:35;3.78;;;2.30;;
66342;SDS011;53144;51.524;5.080;2023-04-02T20:00:00;5.80;;;2.17;;
66342;SDS011;53144;51.524;5.080;2023-04-02T20:02:26;4.30;;;2.40;;
66342;SDS011;53144;51.524;5.080;2023-04-02T20:04:51;4.90;;;3.10;;
66342;SDS011;53144;51.524;5.080;2023-04-02T20:07:17;4.72;;;2.60;;
66342;SDS011;53144;51.524;5.080;2023-04-02T20:09:42;5.75;;;2.55;;
66342;SDS011;53144;51.524;5.080;2023-04-02T20:12:08;3.00;;;2.58;;
66342;SDS011;53144;51.524;5.080;2023-04-02T20:14:33;6.57;;;3.25;;
66342;SDS011;53144;51.524;5.080;2023-04-02T20:16:59;8.20;;;3.97;;
66342;SDS011;53144;51.524;5.080;2023-04-02T20:19:24;5.22;;;3.40;;
66342;SDS011;53144;51.524;5.080;2023-04-02T20:21:49;5.13;;;3.40;;
66342;SDS011;53144;51.524;5.080;2023-04-02T20:24:15;4.47;;;2.72;;
66342;SDS011;53144;51.524;5.080;2023-04-02T20:26:41;5.65;;;2.53;;
66342;SDS011;53144;51.524;5.080;2023-04-02T20:29:06;7.03;;;2.97;;
66342;SDS011;53144;51.524;5.080;2023-04-02T20:31:32;3.60;;;2.90;;
66342;SDS011;53144;51.524;5.080;2023-04-02T20:33:57;4.53;;;2.85;;
66342;SDS011;53144;51.524;5.080;2023-04-02T20:36:23;4.65;;;2.40;;
66342;SDS011;53144;51.524;5.080;2023-04-02T20:38:49;4.40;;;2.75;;
66342;SDS011;53144;51.524;5.080;2023-04-02T20:41:16;5.55;;;2.30;;
66342;SDS011;53144;51.524;5.080;2023-04-02T20:43:42;3.90;;;2.30;;
66342;SDS011;53144;51.524;5.080;2023-04-02T20:46:07;6.57;;;3.05;;
66342;SDS011;53144;51.524;5.080;2023-04-02T20:48:34;3.45;;;2.50;;
66342;SDS011;53144;51.524;5.080;2023-04-02T20:51:02;3.80;;;2.60;;
66342;SDS011;53144;51.524;5.080;2023-04-02T20:53:29;7.68;;;3.40;;
66342;SDS011;53144;51.524;5.080;2023-04-02T20:56:03;6.07;;;3.03;;
66342;SDS011;53144;51.524;5.080;2023-04-02T20:58:39;3.78;;;2.92;;
66342;SDS011;53144;51.524;5.080;2023-04-02T21:03:35;8.30;;;3.85;;
66342;SDS011;53144;51.524;5.080;2023-04-02T21:06:00;6.85;;;3.97;;
66342;SDS011;53144;51.524;5.080;2023-04-02T21:08:26;6.43;;;3.80;;
66342;SDS011;53144;51.524;5.080;2023-04-02T21:10:51;5.60;;;4.13;;
66342;SDS011;53144;51.524;5.080;2023-04-02T21:13:17;6.00;;;3.30;;
66342;SDS011;53144;51.524;5.080;2023-04-02T21:15:42;5.50;;;3.80;;